ADDS METAR Data INFO
IDs: Format: Raw Decoded Include TAF

Data at: 1538 UTC 25 Feb 2018

KGRR 251453Z 25023G31KT 10SM BKN023 OVC031 02/M03 A2975 RMK AO2 PK WND 25031/1453 SLP082 T00171028 51038 $
KGRR 251353Z 24023G32KT 10SM BKN023 OVC029 01/M03 A2972 RMK AO2 PK WND 24037/1336 SLP071 T00111028 $
KGRR 251253Z 24019G32KT 10SM OVC020 02/M01 A2969 RMK AO2 PK WND 24040/1219 SLP059 T00171011 $
KGRR 251153Z 25025G40KT 10SM BKN018 OVC025 02/01 A2964 RMK AO2 PK WND 24040/1147 SLP043 60009 70009 T00220011 10089 20022 53048 $
KGRR 251053Z 26023G41KT 10SM BKN017 OVC023 03/02 A2958 RMK AO2 PK WND 24049/1004 RAE09 SLP024 P0000 T00280017 $
KGRR 251040Z AUTO 26029G42KT 10SM BKN015 OVC020 03/03 A2957 RMK AO2 PK WND 24049/1004 RAE09 P0000 T00330028 $
KGRR 251023Z AUTO 25029G39KT 10SM FEW009 OVC014 04/03 A2955 RMK AO2 PK WND 24049/1004 RAE09 PRESRR P0000 T00390033 $
KGRR 251014Z AUTO 24032G39KT 10SM BKN010 OVC015 04/04 A2954 RMK AO2 PK WND 24049/1004 RAE09 PRESRR P0000 T00390039 $
KGRR 250953Z AUTO 25032G40KT 3SM -RA BR OVC009 05/05 A2950 RMK AO2 PK WND 25046/0929 RAE00B18 PRESRR SLP996 P0001 T00500050 $
KGRR 250948Z AUTO 25028G46KT 3SM -RA BR OVC009 06/06 A2950 RMK AO2 PK WND 25046/0929 RAE00B18 PRESRR P0001 $
KGRR 250930Z AUTO 25035G46KT 2SM -RA BR OVC007 08/08 A2946 RMK AO2 PK WND 25046/0929 RAE00B18 PRESRR P0001 T00780078 $
KGRR 250853Z AUTO 19011KT 5SM -RA BR BKN008 OVC012 08/07 A2941 RMK AO2 SLP963 P0004 60008 T00780067 56043
KGRR 250811Z AUTO 17012KT 4SM -RA BR OVC006 06/06 A2942 RMK AO2 P0002 T00610056
KGRR 250801Z AUTO 16012KT 2SM -RA BR OVC006 06/05 A2942 RMK AO2 P0002 T00610050
KGRR 250753Z AUTO 14014KT 2SM -RA BR OVC004 06/05 A2942 RMK AO2 SLP965 P0004 T00560050
KGRR 250745Z AUTO 13013KT 2SM -RA BR OVC003 06/04 A2942 RMK AO2 P0003 T00560044
KGRR 250736Z AUTO 14017G25KT 1 3/4SM -RA BR OVC003 06/04 A2943 RMK AO2 P0001 T00560044
KGRR 250729Z AUTO 13013KT 2SM -RA BR OVC003 05/04 A2944 RMK AO2 P0001 T00500044
KGRR 250653Z AUTO 13014KT 5SM -RA BR OVC004 04/03 A2948 RMK AO2 RAB24 SLP989 P0000 T00440033
KGRR 250553Z AUTO 11016G24KT 9SM OVC007 04/02 A2954 RMK AO2 RAE28 SLP009 P0000 60000 T00390022 10039 20033 58067
KGRR 250514Z AUTO 11017KT 7SM -RA OVC009 04/02 A2959 RMK AO2 P0000 T00390022
KGRR 250453Z 11015KT 8SM -RA OVC010 04/02 A2962 RMK AO2 RAB45 SLP034 LAST P0000 T00390017 400610000
KGRR 250353Z 11018G23KT 9SM OVC011 03/01 A2967 RMK AO2 PK WND 10027/0301 SLP054 T00330006
KGRR 250253Z 11021G27KT 10SM OVC013 03/01 A2974 RMK AO2 PK WND 10032/0223 SLP079 T00330006 58066
KGRR 250239Z 11019G27KT 10SM OVC014 03/01 A2976 RMK AO2 PK WND 10032/0223 T00330006
KGRR 250153Z 10018KT 10SM OVC017 03/00 A2982 RMK AO2 SLP104 T00330000
KGRR 250053Z 10014KT 10SM OVC018 03/00 A2988 RMK AO2 PK WND 10026/0018 SLP127 T00330000
KGRR 242353Z 09016KT 10SM BKN024 OVC085 04/01 A2994 RMK AO2 SLP147 T00390006 10061 20039 56022
KGRR 242341Z 09012G19KT 10SM BKN026 OVC085 04/01 A2995 RMK AO2 T00390006
KGRR 242253Z 09013G22KT 10SM FEW016 SCT090 OVC210 04/01 A2995 RMK AO2 SLP150 T00390006
KGRR 242153Z 09015KT 10SM SCT023 BKN090 OVC240 05/01 A2999 RMK AO2 SLP161 T00500006
KGRR 242053Z 10017G22KT 10SM BKN022 OVC100 06/01 A3001 RMK AO2 SLP168 T00610011 56041
KGRR 241953Z 10013KT 10SM BKN022 OVC095 06/01 A3006 RMK AO2 SLP185 T00560006
KGRR 241934Z 09015KT 10SM SCT021 BKN095 05/01 A3007 RMK AO2 T00500006
KGRR 241853Z 10017KT 10SM BKN021 BKN100 06/01 A3007 RMK AO2 PRESFR SLP187 T00560011
KGRR 241753Z 09015KT 10SM OVC020 04/M01 A3013 RMK AO2 SLP212 T00391006 10039 20000 58024
KGRR 241718Z 10016KT 10SM BKN022 BKN120 OVC200 04/M01 A3017 RMK AO2 T00391006
KGRR 241653Z 10015G21KT 10SM FEW030 BKN110 OVC200 03/M01 A3017 RMK AO2 SLP225 T00331011
KGRR 241553Z 09014KT 10SM BKN110 OVC200 02/M02 A3019 RMK AO2 SLP230 T00221017
KGRR 241453Z 08010KT 10SM BKN110 OVC200 02/M02 A3021 RMK AO2 SLP237 T00171017 56005
KGRR 241353Z 05006KT 10SM FEW022 BKN110 OVC200 01/M02 A3021 RMK AO2 SLP237 T00111022
KGRR 241253Z 05004KT 10SM SCT022 OVC200 01/M02 A3022 RMK AO2 SLP240 T00061022
KGRR 241153Z 06003KT 10SM OVC021 01/M02 A3022 RMK AO2 SLP242 70011 T00061022 10028 20006 50000
KGRR 241053Z 06004KT 10SM OVC021 01/M02 A3023 RMK AO2 SLP243 T00061022
KGRR 240953Z AUTO 07004KT 10SM OVC023 01/M02 A3023 RMK AO2 SLP245 T00111022
KGRR 240853Z AUTO 01006KT 10SM OVC017 01/M02 A3022 RMK AO2 SLP242 T00111022 58007
KGRR 240753Z AUTO 35006KT 10SM OVC022 01/M02 A3024 RMK AO2 SLP249 T00111022
KGRR 240653Z AUTO 32007KT 10SM OVC021 02/M02 A3026 RMK AO2 SLP255 T00171017
KGRR 240553Z AUTO 31006KT 10SM OVC018 03/M01 A3025 RMK AO2 SLP249 T00281011 10033 20022 53006
KGRR 240453Z 29010KT 10SM OVC018 03/M01 A3024 RMK AO2 SLP246 LAST T00281006 400670006
KGRR 240353Z 29011G17KT 10SM OVC017 03/M01 A3023 RMK AO2 SLP244 T00281006